createdAt,value
2023-08-08T00:01:46.932Z,100.00
2023-08-08T00:04:14.349Z,100.00
2023-08-08T00:06:41.824Z,99.82
2023-08-08T00:09:09.273Z,99.07
2023-08-08T00:11:36.936Z,98.59
2023-08-08T00:14:04.365Z,98.99
2023-08-08T00:16:31.725Z,97.59
2023-08-08T00:18:59.213Z,96.98
2023-08-08T00:21:26.604Z,97.36
2023-08-08T00:23:53.960Z,97.59
2023-08-08T00:26:21.351Z,98.08
2023-08-08T00:28:48.766Z,97.62
2023-08-08T00:31:18.926Z,98.04
2023-08-08T00:33:46.764Z,97.27
2023-08-08T00:36:14.104Z,97.65
2023-08-08T00:38:41.570Z,97.50
2023-08-08T00:41:08.963Z,98.13
2023-08-08T00:43:36.486Z,98.34
2023-08-08T00:46:04.284Z,97.36
2023-08-08T00:48:32.330Z,97.77
2023-08-08T00:51:00.792Z,97.47
2023-08-08T00:53:32.326Z,97.40
2023-08-08T00:56:00.893Z,96.73
2023-08-08T00:58:28.868Z,96.26
2023-08-08T01:01:00.991Z,96.16
2023-08-08T01:03:28.654Z,94.78
2023-08-08T01:06:27.366Z,94.91
2023-08-08T01:09:06.040Z,94.88
2023-08-08T01:11:36.098Z,95.75
2023-08-08T01:14:06.433Z,95.39
2023-08-08T01:16:34.469Z,95.47
2023-08-08T01:19:02.518Z,95.77
2023-08-08T01:21:34.124Z,95.46
2023-08-08T01:24:13.766Z,94.53
2023-08-08T01:26:42.361Z,94.76
2023-08-08T01:29:09.769Z,97.43
2023-08-08T01:31:37.184Z,98.97
2023-08-08T01:34:06.182Z,99.16
2023-08-08T01:36:50.948Z,99.92
2023-08-08T01:39:23.816Z,100.00
2023-08-08T01:41:52.791Z,100.00
2023-08-08T01:44:20.431Z,99.80
2023-08-08T01:46:48.557Z,98.60
2023-08-08T01:49:16.162Z,97.70
2023-08-08T01:51:43.535Z,99.52
2023-08-08T01:54:11.050Z,100.00
2023-08-08T01:56:39.155Z,100.00
2023-08-08T01:59:06.644Z,100.00
2023-08-08T02:01:34.161Z,100.00
2023-08-08T02:04:02.071Z,100.00
2023-08-08T02:06:29.463Z,100.00
2023-08-08T02:08:57.136Z,100.00
2023-08-08T02:11:24.614Z,100.00
2023-08-08T02:13:52.043Z,100.00
2023-08-08T02:16:19.568Z,100.00
2023-08-08T02:18:47.004Z,100.00
2023-08-08T02:21:14.492Z,100.00
2023-08-08T02:23:41.939Z,100.00
2023-08-08T02:26:09.437Z,100.00
2023-08-08T02:28:37.142Z,100.00
2023-08-08T02:31:04.547Z,100.00
2023-08-08T02:33:31.996Z,100.00
2023-08-08T02:35:59.864Z,100.00
2023-08-08T02:38:27.274Z,100.00
2023-08-08T02:40:54.766Z,100.00
2023-08-08T02:43:22.102Z,100.00
2023-08-08T02:45:49.536Z,100.00
2023-08-08T02:48:17.057Z,100.00
2023-08-08T02:50:44.889Z,100.00
2023-08-08T02:53:12.666Z,100.00
2023-08-08T02:55:45.141Z,100.00
2023-08-08T02:58:13.166Z,100.00
2023-08-08T03:00:40.848Z,100.00
2023-08-08T03:03:11.550Z,100.00
2023-08-08T03:05:38.933Z,100.00
2023-08-08T03:08:06.808Z,100.00
2023-08-08T03:10:34.640Z,100.00
2023-08-08T03:13:02.083Z,100.00
2023-08-08T03:15:29.479Z,100.00
2023-08-08T03:17:57.085Z,100.00
2023-08-08T03:20:26.090Z,100.00
2023-08-08T03:22:53.700Z,100.00
2023-08-08T03:25:21.745Z,100.00
2023-08-08T03:27:49.246Z,100.00
2023-08-08T03:30:17.122Z,100.00
2023-08-08T03:32:45.201Z,100.00
2023-08-08T03:35:12.611Z,100.00
2023-08-08T03:37:43.078Z,100.00
2023-08-08T03:40:10.963Z,100.00
2023-08-08T03:42:38.573Z,100.00
2023-08-08T03:45:07.070Z,100.00
2023-08-08T03:47:34.629Z,100.00
2023-08-08T03:50:02.206Z,100.00
2023-08-08T03:52:30.163Z,100.00
2023-08-08T03:54:58.743Z,100.00
2023-08-08T03:57:26.690Z,100.00
2023-08-08T03:59:54.073Z,100.00
2023-08-08T04:02:21.510Z,100.00
2023-08-08T04:04:48.947Z,100.00
2023-08-08T04:07:16.406Z,100.00
2023-08-08T04:09:44.014Z,100.00
2023-08-08T04:12:11.463Z,100.00
2023-08-08T04:14:39.837Z,100.00
2023-08-08T04:17:07.215Z,100.00
2023-08-08T04:19:34.718Z,100.00
2023-08-08T04:22:02.342Z,100.00
2023-08-08T04:24:30.037Z,100.00
2023-08-08T04:26:57.405Z,100.00
2023-08-08T04:29:24.771Z,100.00
2023-08-08T04:31:52.558Z,100.00
2023-08-08T04:34:19.912Z,100.00
2023-08-08T04:36:47.391Z,100.00
2023-08-08T04:39:14.896Z,100.00
2023-08-08T04:41:42.280Z,100.00
2023-08-08T04:44:09.673Z,100.00
2023-08-08T04:46:37.227Z,100.00
2023-08-08T04:49:04.661Z,100.00
2023-08-08T04:51:32.087Z,100.00
2023-08-08T04:53:59.497Z,100.00
2023-08-08T04:56:28.026Z,100.00
2023-08-08T04:58:56.917Z,100.00
2023-08-08T05:01:24.310Z,100.00
2023-08-08T05:03:53.705Z,100.00
2023-08-08T05:06:22.736Z,100.00
2023-08-08T05:08:52.842Z,100.00
2023-08-08T05:11:20.475Z,100.00
2023-08-08T05:13:47.856Z,100.00
2023-08-08T05:16:15.397Z,100.00
2023-08-08T05:18:45.344Z,100.00
2023-08-08T05:21:12.800Z,100.00
2023-08-08T05:23:40.273Z,100.00
2023-08-08T05:26:07.726Z,100.00
2023-08-08T05:28:35.241Z,100.00
2023-08-08T05:31:02.662Z,99.36
2023-08-08T05:33:31.460Z,91.72
2023-08-08T05:36:00.375Z,85.39
2023-08-08T05:38:27.776Z,79.24
2023-08-08T05:40:55.121Z,75.45
2023-08-08T05:43:22.786Z,74.19
2023-08-08T05:45:50.241Z,73.95
2023-08-08T05:48:17.880Z,71.94
2023-08-08T05:50:45.413Z,67.63
2023-08-08T05:53:12.959Z,62.79
2023-08-08T05:55:43.533Z,58.27
2023-08-08T05:58:11.119Z,55.13
2023-08-08T06:00:38.530Z,52.94
2023-08-08T06:03:06.257Z,50.47
2023-08-08T06:05:33.823Z,49.06
2023-08-08T06:08:01.797Z,47.73
2023-08-08T06:10:29.233Z,46.82
2023-08-08T06:12:56.619Z,44.60
2023-08-08T06:15:24.322Z,43.31
2023-08-08T06:17:51.823Z,42.22
2023-08-08T06:20:19.253Z,40.99
2023-08-08T06:22:47.119Z,40.23
2023-08-08T06:25:14.617Z,38.89
2023-08-08T06:27:42.018Z,38.01
2023-08-08T06:30:09.803Z,37.57
2023-08-08T06:32:37.360Z,37.31
2023-08-08T06:35:05.310Z,36.51
2023-08-08T06:37:32.783Z,36.47
2023-08-08T06:40:00.172Z,35.67
2023-08-08T06:42:27.545Z,34.79
2023-08-08T06:44:58.654Z,34.73
2023-08-08T06:47:26.005Z,34.37
2023-08-08T06:49:53.499Z,34.42
2023-08-08T06:52:21.867Z,34.26
2023-08-08T06:54:49.366Z,33.68
2023-08-08T06:57:16.790Z,33.94
2023-08-08T06:59:44.205Z,33.67
2023-08-08T07:02:13.121Z,33.83
2023-08-08T07:04:40.611Z,33.52
2023-08-08T07:07:08.215Z,33.38
2023-08-08T07:09:36.092Z,33.08
2023-08-08T07:12:03.738Z,32.84
2023-08-08T07:14:31.265Z,33.36
2023-08-08T07:16:58.715Z,33.35
2023-08-08T07:19:26.371Z,33.66
2023-08-08T07:21:53.776Z,33.24
2023-08-08T07:24:21.568Z,33.80
2023-08-08T07:26:49.623Z,34.12
2023-08-08T07:29:17.724Z,34.52
2023-08-08T07:31:45.192Z,34.62
2023-08-08T07:34:12.574Z,34.25
2023-08-08T07:36:39.959Z,33.53
2023-08-08T07:39:07.329Z,33.73
2023-08-08T07:41:36.031Z,33.87
2023-08-08T07:44:03.761Z,33.51
2023-08-08T07:46:31.608Z,33.37
2023-08-08T07:49:04.735Z,33.18
2023-08-08T07:51:32.209Z,32.37
2023-08-08T07:54:00.610Z,32.18
2023-08-08T07:56:28.160Z,32.75
2023-08-08T07:58:55.641Z,32.05
2023-08-08T08:01:23.236Z,31.61
2023-08-08T08:03:50.789Z,31.69
2023-08-08T08:06:18.414Z,31.04
2023-08-08T08:08:46.153Z,30.55
2023-08-08T08:11:14.323Z,31.53
2023-08-08T08:13:41.708Z,32.04
2023-08-08T08:16:09.314Z,33.49
2023-08-08T08:18:36.799Z,33.87
2023-08-08T08:21:04.435Z,33.10
2023-08-08T08:23:33.419Z,32.82
2023-08-08T08:26:01.039Z,32.08
2023-08-08T08:28:28.430Z,32.41
2023-08-08T08:30:55.931Z,32.64
2023-08-08T08:33:23.385Z,32.91
2023-08-08T08:35:50.711Z,33.81
2023-08-08T08:38:18.271Z,33.97
2023-08-08T08:40:48.418Z,34.09
2023-08-08T08:43:17.158Z,33.23
2023-08-08T08:45:51.074Z,32.58
2023-08-08T08:48:20.460Z,32.35
2023-08-08T08:50:51.797Z,31.77
2023-08-08T08:53:19.214Z,31.28
2023-08-08T08:55:48.225Z,31.43
2023-08-08T08:58:19.523Z,31.32
2023-08-08T09:00:47.910Z,31.32
2023-08-08T09:03:15.690Z,30.74
2023-08-08T09:05:46.211Z,31.07
2023-08-08T09:08:14.156Z,31.70
2023-08-08T09:10:42.082Z,31.67
2023-08-08T09:13:09.419Z,32.00
2023-08-08T09:15:36.924Z,31.40
2023-08-08T09:18:04.699Z,31.26
2023-08-08T09:20:32.290Z,32.03
2023-08-08T09:23:00.005Z,32.66
2023-08-08T09:25:27.586Z,33.32
2023-08-08T09:27:55.050Z,33.72
2023-08-08T09:30:22.796Z,34.35
2023-08-08T09:32:50.581Z,33.02
2023-08-08T09:35:18.134Z,32.48
2023-08-08T09:37:45.587Z,32.58
2023-08-08T09:40:13.248Z,31.48
2023-08-08T09:42:41.989Z,32.11
2023-08-08T09:45:10.477Z,32.38
2023-08-08T09:47:39.014Z,31.78
2023-08-08T09:50:07.953Z,31.64
2023-08-08T09:52:36.465Z,32.21
2023-08-08T09:55:04.955Z,33.05
2023-08-08T09:57:33.352Z,33.38
2023-08-08T10:00:02.343Z,32.97
2023-08-08T10:02:34.506Z,32.90
2023-08-08T10:05:03.523Z,32.93
2023-08-08T10:07:31.546Z,33.29
2023-08-08T10:10:00.225Z,33.52
2023-08-08T10:12:28.062Z,33.84
2023-08-08T10:14:56.537Z,31.83
2023-08-08T10:17:24.832Z,32.94
2023-08-08T10:19:55.152Z,33.54
2023-08-08T10:22:25.136Z,33.59
2023-08-08T10:24:55.058Z,34.20
2023-08-08T10:27:32.152Z,33.50
2023-08-08T10:30:13.428Z,32.93
2023-08-08T10:32:45.909Z,32.82
2023-08-08T10:35:13.906Z,33.40
2023-08-08T10:37:42.291Z,33.81
2023-08-08T10:40:12.651Z,34.02
2023-08-08T10:42:44.582Z,34.31
2023-08-08T10:45:14.544Z,34.35
2023-08-08T10:47:43.320Z,33.60
2023-08-08T10:50:15.939Z,33.63
2023-08-08T10:52:55.310Z,33.77
2023-08-08T10:55:27.457Z,33.60
2023-08-08T10:58:21.281Z,34.21
2023-08-08T11:00:49.822Z,34.46
2023-08-08T11:03:18.965Z,34.53
2023-08-08T11:05:52.335Z,34.57
2023-08-08T11:08:20.065Z,34.67
2023-08-08T11:10:53.372Z,34.03
2023-08-08T11:13:20.989Z,34.29
2023-08-08T11:15:48.484Z,35.67
2023-08-08T11:18:16.924Z,35.14
2023-08-08T11:20:45.436Z,34.45
2023-08-08T11:23:13.843Z,34.05
2023-08-08T11:25:43.767Z,33.98
2023-08-08T11:28:12.542Z,34.70
2023-08-08T11:30:44.343Z,34.18
2023-08-08T11:33:16.061Z,34.41
2023-08-08T11:35:50.573Z,35.01
2023-08-08T11:38:19.003Z,35.66
2023-08-08T11:40:46.702Z,35.67
2023-08-08T11:43:15.110Z,36.38
2023-08-08T11:45:44.146Z,36.31
2023-08-08T11:48:11.664Z,36.34
2023-08-08T11:50:40.139Z,36.84
2023-08-08T11:53:08.841Z,36.91
2023-08-08T11:55:37.747Z,36.98
2023-08-08T11:58:06.804Z,37.60
2023-08-08T12:00:35.141Z,37.53
2023-08-08T12:03:05.294Z,37.82
2023-08-08T12:05:39.428Z,37.88
2023-08-08T12:08:07.971Z,37.41
2023-08-08T12:10:35.459Z,38.44
2023-08-08T12:13:02.939Z,39.01
2023-08-08T12:15:32.349Z,39.06
2023-08-08T12:18:00.882Z,38.72
2023-08-08T12:20:31.039Z,39.32
2023-08-08T12:22:59.154Z,39.05
2023-08-08T12:25:26.597Z,39.05
2023-08-08T12:27:53.989Z,40.00
2023-08-08T12:30:21.478Z,40.44
2023-08-08T12:32:49.010Z,40.82
2023-08-08T12:35:17.635Z,40.85
2023-08-08T12:37:45.052Z,40.76
2023-08-08T12:40:13.178Z,40.84
2023-08-08T12:42:40.912Z,40.79
2023-08-08T12:45:08.682Z,40.49
2023-08-08T12:47:38.640Z,40.42
2023-08-08T12:50:07.545Z,40.53
2023-08-08T12:52:35.204Z,40.90
2023-08-08T12:55:04.019Z,41.41
2023-08-08T12:57:32.815Z,42.43
2023-08-08T13:00:00.417Z,42.84
2023-08-08T13:02:28.016Z,42.91
2023-08-08T13:04:55.456Z,43.17
2023-08-08T13:07:22.900Z,41.96
2023-08-08T13:09:50.391Z,42.36
2023-08-08T13:12:17.833Z,42.16
2023-08-08T13:14:45.299Z,41.90
2023-08-08T13:17:12.675Z,41.39
2023-08-08T13:19:40.852Z,41.68
2023-08-08T13:22:08.251Z,42.36
2023-08-08T13:24:35.609Z,42.95
2023-08-08T13:27:03.042Z,43.08
2023-08-08T13:29:30.436Z,43.40
2023-08-08T13:31:57.836Z,43.84
2023-08-08T13:34:25.212Z,43.94
2023-08-08T13:36:52.616Z,44.78
2023-08-08T13:39:20.194Z,45.78
2023-08-08T13:41:47.611Z,46.11
2023-08-08T13:44:14.985Z,45.49
2023-08-08T13:46:42.418Z,45.16
2023-08-08T13:49:09.840Z,45.82
2023-08-08T13:51:37.299Z,46.21
2023-08-08T13:54:05.218Z,46.54
2023-08-08T13:56:32.711Z,46.81
2023-08-08T13:59:00.315Z,46.79
2023-08-08T14:01:27.733Z,47.54
2023-08-08T14:03:55.350Z,47.27
2023-08-08T14:06:22.821Z,48.11
2023-08-08T14:08:50.322Z,47.63
2023-08-08T14:11:17.749Z,47.45
2023-08-08T14:13:45.324Z,47.25
2023-08-08T14:16:13.306Z,46.71
2023-08-08T14:18:40.827Z,46.40
2023-08-08T14:21:08.238Z,45.78
2023-08-08T14:23:35.747Z,46.47
2023-08-08T14:26:03.175Z,47.24
2023-08-08T14:28:30.595Z,47.77
2023-08-08T14:30:58.036Z,47.65
2023-08-08T14:33:25.441Z,48.06
2023-08-08T14:35:52.900Z,47.95
2023-08-08T14:38:25.476Z,48.66
2023-08-08T14:40:57.874Z,48.60
2023-08-08T14:43:25.313Z,48.83
2023-08-08T14:45:52.749Z,47.98
2023-08-08T14:48:20.195Z,48.51
2023-08-08T14:50:47.575Z,48.53
2023-08-08T14:53:14.949Z,48.98
2023-08-08T14:55:42.339Z,48.97
2023-08-08T14:58:09.744Z,48.69
2023-08-08T15:00:37.157Z,49.22
2023-08-08T15:03:04.921Z,49.00
2023-08-08T15:05:32.608Z,48.83
2023-08-08T15:08:00.062Z,48.39
2023-08-08T15:10:27.557Z,48.72
2023-08-08T15:12:54.971Z,49.01
2023-08-08T15:15:24.334Z,49.12
2023-08-08T15:17:52.955Z,49.65
2023-08-08T15:20:20.512Z,49.53
2023-08-08T15:22:47.986Z,48.76
2023-08-08T15:25:15.472Z,48.98
2023-08-08T15:27:42.985Z,49.11
2023-08-08T15:30:10.754Z,49.22
2023-08-08T15:32:38.760Z,49.94
2023-08-08T15:35:07.078Z,49.94
2023-08-08T15:37:34.630Z,49.37
2023-08-08T15:40:02.152Z,49.67
2023-08-08T15:42:29.621Z,49.92
2023-08-08T15:44:57.106Z,49.62
2023-08-08T15:47:24.503Z,50.10
2023-08-08T15:49:51.902Z,49.97
2023-08-08T15:52:19.403Z,49.81
2023-08-08T15:54:46.743Z,50.28
2023-08-08T15:57:14.131Z,50.47
2023-08-08T15:59:43.561Z,50.71
2023-08-08T16:02:11.366Z,51.44
2023-08-08T16:04:39.158Z,51.50
2023-08-08T16:07:06.637Z,50.82
2023-08-08T16:09:34.127Z,51.46
2023-08-08T16:12:01.651Z,51.60
2023-08-08T16:14:29.194Z,51.47
2023-08-08T16:16:56.597Z,51.72
2023-08-08T16:19:24.097Z,52.28
2023-08-08T16:21:51.870Z,52.44
2023-08-08T16:24:19.296Z,52.27
2023-08-08T16:26:47.224Z,52.66
2023-08-08T16:29:14.639Z,53.33
2023-08-08T16:31:42.074Z,54.07
2023-08-08T16:34:09.736Z,53.72
2023-08-08T16:36:38.691Z,54.25
2023-08-08T16:39:18.119Z,54.42
2023-08-08T16:41:46.845Z,55.00
2023-08-08T16:44:14.351Z,54.58
2023-08-08T16:46:42.243Z,54.34
2023-08-08T16:49:09.741Z,54.53
2023-08-08T16:51:37.141Z,54.87
2023-08-08T16:54:04.930Z,55.48
2023-08-08T16:56:32.623Z,55.71
2023-08-08T16:59:00.107Z,54.80
2023-08-08T17:01:27.542Z,54.79
2023-08-08T17:03:55.159Z,54.92
2023-08-08T17:06:23.201Z,56.01
2023-08-08T17:08:50.541Z,55.82
2023-08-08T17:11:18.409Z,54.92
2023-08-08T17:13:48.127Z,54.70
2023-08-08T17:16:17.073Z,54.61
2023-08-08T17:18:44.557Z,55.78
2023-08-08T17:21:12.049Z,56.20
2023-08-08T17:23:39.489Z,56.67
2023-08-08T17:26:07.032Z,56.64
2023-08-08T17:28:34.432Z,56.34
2023-08-08T17:31:01.847Z,57.08
2023-08-08T17:33:31.047Z,58.14
2023-08-08T17:35:58.768Z,58.57
2023-08-08T17:38:27.539Z,59.08
2023-08-08T17:40:54.874Z,59.26
2023-08-08T17:43:23.481Z,60.84
2023-08-08T17:45:51.082Z,61.68
2023-08-08T17:48:18.540Z,62.30
2023-08-08T17:50:45.937Z,62.84
2023-08-08T17:53:13.433Z,62.74
2023-08-08T17:55:40.872Z,63.37
2023-08-08T17:58:08.952Z,63.45
2023-08-08T18:00:36.482Z,63.12
2023-08-08T18:03:04.284Z,63.69
2023-08-08T18:05:31.719Z,64.05
2023-08-08T18:07:59.151Z,64.48
2023-08-08T18:10:26.613Z,64.44
2023-08-08T18:12:54.014Z,64.04
2023-08-08T18:15:21.422Z,64.75
2023-08-08T18:17:48.918Z,64.97
2023-08-08T18:20:16.289Z,65.30
2023-08-08T18:22:43.709Z,66.04
2023-08-08T18:25:11.472Z,66.16
2023-08-08T18:27:38.820Z,66.28
2023-08-08T18:30:07.105Z,66.10
2023-08-08T18:32:34.640Z,65.75
2023-08-08T18:35:02.139Z,66.41
2023-08-08T18:37:29.909Z,67.29
2023-08-08T18:39:57.267Z,67.88
2023-08-08T18:42:24.689Z,68.21
2023-08-08T18:44:52.030Z,69.03
2023-08-08T18:47:19.461Z,69.84
2023-08-08T18:49:46.822Z,69.91
2023-08-08T18:52:14.262Z,69.60
2023-08-08T18:54:41.682Z,68.93
2023-08-08T18:57:09.051Z,69.29
2023-08-08T18:59:36.557Z,70.15
2023-08-08T19:02:04.307Z,70.56
2023-08-08T19:04:31.886Z,70.76
2023-08-08T19:06:59.950Z,71.37
2023-08-08T19:09:27.606Z,72.03
2023-08-08T19:11:55.146Z,72.91
2023-08-08T19:14:22.713Z,73.09
2023-08-08T19:16:50.177Z,73.59
2023-08-08T19:19:17.574Z,73.85
2023-08-08T19:21:45.059Z,74.16
2023-08-08T19:24:12.489Z,74.00
2023-08-08T19:26:39.913Z,74.66
2023-08-08T19:29:07.314Z,76.20
2023-08-08T19:31:34.746Z,77.15
2023-08-08T19:34:07.270Z,77.92
2023-08-08T19:36:36.506Z,79.13
2023-08-08T19:39:04.297Z,80.09
2023-08-08T19:41:31.685Z,80.91
2023-08-08T19:43:59.132Z,80.95
2023-08-08T19:46:26.592Z,81.69
2023-08-08T19:48:54.018Z,82.53
2023-08-08T19:51:21.395Z,82.00
2023-08-08T19:53:49.716Z,82.02
2023-08-08T19:56:17.271Z,82.83
2023-08-08T19:58:44.730Z,82.95
2023-08-08T20:01:12.510Z,84.02
2023-08-08T20:03:42.066Z,84.47
2023-08-08T20:06:09.624Z,83.41
2023-08-08T20:08:37.034Z,83.86
2023-08-08T20:11:06.724Z,84.63
2023-08-08T20:13:34.673Z,84.98
2023-08-08T20:16:02.147Z,85.19
2023-08-08T20:18:29.634Z,84.60
2023-08-08T20:20:57.789Z,85.53
2023-08-08T20:23:25.187Z,86.61
2023-08-08T20:25:52.593Z,86.57
2023-08-08T20:28:20.174Z,87.04
2023-08-08T20:30:47.736Z,87.63
2023-08-08T20:33:15.183Z,88.80
2023-08-08T20:35:42.613Z,89.38
2023-08-08T20:38:11.403Z,88.50
2023-08-08T20:40:39.143Z,88.58
2023-08-08T20:43:06.585Z,88.96
2023-08-08T20:45:34.064Z,89.04
2023-08-08T20:48:02.073Z,89.04
2023-08-08T20:50:29.514Z,89.77
2023-08-08T20:52:57.179Z,89.37
2023-08-08T20:55:24.814Z,89.61
2023-08-08T20:57:52.183Z,89.99
2023-08-08T21:00:20.298Z,90.44
2023-08-08T21:02:47.814Z,90.43
2023-08-08T21:05:15.362Z,91.61
2023-08-08T21:07:42.746Z,91.39
2023-08-08T21:10:10.542Z,91.70
2023-08-08T21:12:37.944Z,92.57
2023-08-08T21:15:05.747Z,92.15
2023-08-08T21:17:33.752Z,91.91
2023-08-08T21:20:02.213Z,92.81
2023-08-08T21:22:30.006Z,92.68
2023-08-08T21:24:57.370Z,92.78
2023-08-08T21:27:24.715Z,92.28
2023-08-08T21:29:52.070Z,92.34
2023-08-08T21:32:19.451Z,93.32
2023-08-08T21:34:46.812Z,93.75
2023-08-08T21:37:14.231Z,94.25
2023-08-08T21:39:41.650Z,94.29
2023-08-08T21:42:09.500Z,93.68
2023-08-08T21:44:36.897Z,93.13
2023-08-08T21:47:04.759Z,93.80
2023-08-08T21:49:32.389Z,94.31
2023-08-08T21:52:01.607Z,94.50
2023-08-08T21:54:29.179Z,94.01
2023-08-08T21:56:56.550Z,94.37
2023-08-08T21:59:23.902Z,94.33
2023-08-08T22:01:51.396Z,94.79
2023-08-08T22:04:19.097Z,95.33
2023-08-08T22:06:46.513Z,95.77
2023-08-08T22:09:13.883Z,95.99
2023-08-08T22:11:41.291Z,96.14
2023-08-08T22:14:08.679Z,96.94
2023-08-08T22:16:36.120Z,96.61
2023-08-08T22:19:03.754Z,97.70
2023-08-08T22:21:31.142Z,97.29
2023-08-08T22:23:58.490Z,98.14
2023-08-08T22:26:25.906Z,98.57
2023-08-08T22:28:53.348Z,98.89
2023-08-08T22:31:20.773Z,100.00
2023-08-08T22:33:48.259Z,100.00
2023-08-08T22:36:15.665Z,100.00
2023-08-08T22:38:43.362Z,100.00
2023-08-08T22:41:10.985Z,100.00
2023-08-08T22:43:38.345Z,100.00
2023-08-08T22:46:05.813Z,100.00
2023-08-08T22:48:33.208Z,100.00
2023-08-08T22:51:00.601Z,100.00
2023-08-08T22:53:28.058Z,100.00
2023-08-08T22:55:55.404Z,100.00
2023-08-08T22:58:22.751Z,100.00
2023-08-08T23:00:50.135Z,100.00
2023-08-08T23:03:17.566Z,100.00
2023-08-08T23:05:45.067Z,100.00
2023-08-08T23:08:12.422Z,100.00
2023-08-08T23:10:39.796Z,100.00
2023-08-08T23:13:07.201Z,100.00
2023-08-08T23:15:34.623Z,100.00
2023-08-08T23:18:02.055Z,100.00
2023-08-08T23:20:29.492Z,100.00
2023-08-08T23:22:56.846Z,100.00
2023-08-08T23:25:26.115Z,100.00
2023-08-08T23:27:53.644Z,100.00
2023-08-08T23:30:21.147Z,100.00
2023-08-08T23:32:54.654Z,100.00
2023-08-08T23:35:23.614Z,100.00
2023-08-08T23:37:51.060Z,100.00
2023-08-08T23:40:18.562Z,100.00
2023-08-08T23:42:45.972Z,100.00
2023-08-08T23:45:14.492Z,100.00
2023-08-08T23:47:42.499Z,100.00
2023-08-08T23:50:10.334Z,100.00
2023-08-08T23:52:37.773Z,100.00
2023-08-08T23:55:05.968Z,100.00
2023-08-08T23:57:33.716Z,100.00
